Ufimets — UFNC — position and weather

sailwx.info

Track history (hours):
 
Tides and Currents Weather Stations Pressure Air Temp Water Temp Dewpoint Dewpoint Depression Visibility Wind Speed Wind Dir Waves Ship Positions

Ufimets

Last reported at 2015-May-27 00:33 UTC. Time now 2015-May-29 06:16 UTC.
Position N 59°51' E 030°30'.

Length 82 m; draft 1.8 m.

Type: Ship. MMSI: 27343260.

Date/timePositionNaut miles runAvg speedWind from/ knotsBaromVisibWave heightAir tempDewpointWater temp
2015-May-27 00:33N 59°51' E 030°30'4 4.0
2015-May-26 23:32N 59°55' E 030°25'4 4.1
2015-May-26 22:32N 59°56' E 030°17'0 0.2
2015-May-26 21:32N 59°56' E 030°17'0 0.0
2015-May-26 20:33N 59°56' E 030°17'0 0.0
2015-May-26 19:33N 59°56' E 030°17'0 0.0
2015-May-26 18:33N 59°56' E 030°17'0 0.0
2015-May-26 17:34N 59°56' E 030°17'3 2.5
2015-May-26 16:33N 59°55' E 030°12'7 7.2
2015-May-26 15:33N 59°56' E 029°58'  
2015-May-24 02:24N 59°57' E 029°54'6 6.8
2015-May-24 01:33N 59°54' E 030°05'6 5.8
2015-May-24 00:33N 59°55' E 030°16'4 3.8
2015-May-23 23:32N 59°55' E 030°24'0 0.1
2015-May-23 22:33N 59°55' E 030°24'0 0.0
2015-May-23 21:33N 59°55' E 030°24'0 0.0
2015-May-23 20:33N 59°55' E 030°24'0 0.0
2015-May-23 19:33N 59°55' E 030°24'0 0.0
2015-May-23 18:33N 59°55' E 030°24'0 0.0
2015-May-23 17:34N 59°55' E 030°24'  
2015-May-18 01:14N 59°49' E 030°36'10 5.0
2015-May-17 23:18N 59°56' E 030°24'3 4.3
2015-May-17 22:33N 59°56' E 030°17'0 0.2
2015-May-17 21:33N 59°56' E 030°17'0 0.1
2015-May-17 20:32N 59°56' E 030°17'6 5.9
2015-May-17 19:32N 59°56' E 030°05'7 7.3
2015-May-17 18:34N 59°57' E 029°51'  
Track history (hours):
 
Tides and Currents Weather Stations Pressure Air Temp Water Temp Dewpoint Dewpoint Depression Visibility Wind Speed Wind Dir Waves Ship Positions

Ufimets

Last reported at 2015-May-27 00:33 UTC. Time now 2015-May-29 06:16 UTC.
Position N 59°51' E 030°30'.

Length 82 m; draft 1.8 m.

Type: Ship. MMSI: 27343260.

Date/timePositionNaut miles runAvg speedWind from/ knotsBaromVisibWave heightAir tempDewpointWater temp
2015-May-27 00:33N 59°51' E 030°30'4 4.0
2015-May-26 23:32N 59°55' E 030°25'4 4.1
2015-May-26 22:32N 59°56' E 030°17'0 0.2
2015-May-26 21:32N 59°56' E 030°17'0 0.0
2015-May-26 20:33N 59°56' E 030°17'0 0.0
2015-May-26 19:33N 59°56' E 030°17'0 0.0
2015-May-26 18:33N 59°56' E 030°17'0 0.0
2015-May-26 17:34N 59°56' E 030°17'3 2.5
2015-May-26 16:33N 59°55' E 030°12'7 7.2
2015-May-26 15:33N 59°56' E 029°58'  
2015-May-24 02:24N 59°57' E 029°54'6 6.8
2015-May-24 01:33N 59°54' E 030°05'6 5.8
2015-May-24 00:33N 59°55' E 030°16'4 3.8
2015-May-23 23:32N 59°55' E 030°24'0 0.1
2015-May-23 22:33N 59°55' E 030°24'0 0.0
2015-May-23 21:33N 59°55' E 030°24'0 0.0
2015-May-23 20:33N 59°55' E 030°24'0 0.0
2015-May-23 19:33N 59°55' E 030°24'0 0.0
2015-May-23 18:33N 59°55' E 030°24'0 0.0
2015-May-23 17:34N 59°55' E 030°24'  
2015-May-18 01:14N 59°49' E 030°36'10 5.0
2015-May-17 23:18N 59°56' E 030°24'3 4.3
2015-May-17 22:33N 59°56' E 030°17'0 0.2
2015-May-17 21:33N 59°56' E 030°17'0 0.1
2015-May-17 20:32N 59°56' E 030°17'6 5.9
2015-May-17 19:32N 59°56' E 030°05'7 7.3
2015-May-17 18:34N 59°57' E 029°51'  

Dump ship's entire track history